createdAt,value
2017-08-08T00:00:03.274Z,14.65
2017-08-08T00:00:07.380Z,14.64
2017-08-08T00:00:11.849Z,14.65
2017-08-08T00:00:16.332Z,14.65
2017-08-08T00:00:20.692Z,14.64
2017-08-08T00:00:25.136Z,14.64
2017-08-08T00:00:29.488Z,14.64
2017-08-08T00:00:33.938Z,14.63
2017-08-08T00:00:38.398Z,14.63
2017-08-08T00:00:42.865Z,14.63
2017-08-08T00:00:47.220Z,14.63
2017-08-08T00:00:51.563Z,14.62
2017-08-08T00:00:55.923Z,14.62
2017-08-08T00:01:00.386Z,14.62
2017-08-08T00:01:04.842Z,14.62
2017-08-08T00:01:09.081Z,14.61
2017-08-08T00:01:13.447Z,14.61
2017-08-08T00:01:17.678Z,14.61
2017-08-08T00:01:21.893Z,14.61
2017-08-08T00:01:26.268Z,14.61
2017-08-08T00:01:30.733Z,14.6
2017-08-08T00:01:35.101Z,14.61
2017-08-08T00:01:39.575Z,14.6
2017-08-08T00:01:43.791Z,14.6
2017-08-08T00:01:48.119Z,14.59
2017-08-08T00:01:52.353Z,14.59
2017-08-08T00:01:56.839Z,14.59
2017-08-08T00:02:01.062Z,14.59
2017-08-08T00:02:05.656Z,14.58
2017-08-08T00:02:09.776Z,14.58
2017-08-08T00:02:14.263Z,14.57
2017-08-08T00:02:18.599Z,14.57
2017-08-08T00:02:23.060Z,14.58
2017-08-08T00:02:27.539Z,14.56
2017-08-08T00:02:32.013Z,14.56
2017-08-08T00:02:36.487Z,14.57
2017-08-08T00:02:40.945Z,14.56
2017-08-08T00:02:45.288Z,14.56
2017-08-08T00:02:49.511Z,14.56
2017-08-08T00:02:54.023Z,14.55
2017-08-08T00:02:58.501Z,14.56
2017-08-08T00:03:02.705Z,14.55
2017-08-08T00:03:07.056Z,14.56
2017-08-08T00:03:11.295Z,14.55
2017-08-08T00:03:15.649Z,14.55
2017-08-08T00:03:20.118Z,14.55
2017-08-08T00:03:24.588Z,14.55
2017-08-08T00:03:29.065Z,14.54
2017-08-08T00:03:33.548Z,14.53
2017-08-08T00:03:38.011Z,14.54
2017-08-08T00:03:42.355Z,14.53
2017-08-08T00:03:46.723Z,14.54
2017-08-08T00:03:51.214Z,14.53
2017-08-08T00:03:55.558Z,14.53
2017-08-08T00:03:59.891Z,14.52
2017-08-08T00:04:04.475Z,14.53
2017-08-08T00:04:08.943Z,14.53
2017-08-08T00:04:13.281Z,14.53
2017-08-08T00:04:17.628Z,14.52
2017-08-08T00:04:21.964Z,14.52
2017-08-08T00:04:26.330Z,14.53
2017-08-08T00:04:30.693Z,14.52
2017-08-08T00:04:35.141Z,14.52
2017-08-08T00:04:39.605Z,14.52
2017-08-08T00:04:43.852Z,14.51
2017-08-08T00:04:48.214Z,14.51
2017-08-08T00:04:52.562Z,14.51
2017-08-08T00:04:56.914Z,14.51
2017-08-08T00:05:01.253Z,14.51
2017-08-08T00:05:05.478Z,14.5
2017-08-08T00:05:09.946Z,14.5
2017-08-08T00:05:14.192Z,14.5
2017-08-08T00:05:18.671Z,14.5
2017-08-08T00:05:23.017Z,14.5
2017-08-08T00:05:27.389Z,14.49
2017-08-08T00:05:31.849Z,14.49
2017-08-08T00:05:36.321Z,14.49
2017-08-08T00:05:40.799Z,14.49
2017-08-08T00:05:45.152Z,14.48
2017-08-08T00:05:49.518Z,14.47
2017-08-08T00:05:53.870Z,14.48
2017-08-08T00:05:58.357Z,14.49
2017-08-08T00:06:02.870Z,14.48
2017-08-08T00:06:06.870Z,14.48
2017-08-08T00:06:11.253Z,14.47
2017-08-08T00:06:15.496Z,14.48
2017-08-08T00:06:19.835Z,14.48
2017-08-08T00:06:24.183Z,14.46
2017-08-08T00:06:28.574Z,14.47
2017-08-08T00:06:33.028Z,14.47
2017-08-08T00:06:37.503Z,14.46
2017-08-08T00:06:41.867Z,14.46
2017-08-08T00:06:46.217Z,14.46
2017-08-08T00:06:50.441Z,14.46
2017-08-08T00:06:54.808Z,14.45
2017-08-08T00:06:59.159Z,14.46
2017-08-08T00:07:03.488Z,14.45
2017-08-08T00:07:07.859Z,14.45
2017-08-08T00:07:12.332Z,14.44
2017-08-08T00:07:16.797Z,14.46
2017-08-08T00:07:21.135Z,14.44
2017-08-08T00:07:25.604Z,14.44
2017-08-08T00:07:30.078Z,14.44
2017-08-08T00:07:34.533Z,14.43
2017-08-08T00:07:38.998Z,14.43
2017-08-08T00:07:43.353Z,14.43
2017-08-08T00:07:47.808Z,14.43
2017-08-08T00:07:52.159Z,14.43
2017-08-08T00:07:56.613Z,14.43
2017-08-08T00:08:00.966Z,14.43
2017-08-08T00:08:05.576Z,14.42
2017-08-08T00:08:09.917Z,14.42
2017-08-08T00:08:14.263Z,14.43
2017-08-08T00:08:18.644Z,14.42
2017-08-08T00:08:22.977Z,14.42
2017-08-08T00:08:27.207Z,14.41
2017-08-08T00:08:31.562Z,14.42
2017-08-08T00:08:36.025Z,14.41
2017-08-08T00:08:40.365Z,14.41
2017-08-08T00:08:44.714Z,14.41
2017-08-08T00:08:48.960Z,14.41
2017-08-08T00:08:53.300Z,14.41
2017-08-08T00:08:57.751Z,14.41
2017-08-08T00:09:02.302Z,14.4
2017-08-08T00:09:06.766Z,14.41
2017-08-08T00:09:11.232Z,14.4
2017-08-08T00:09:15.693Z,14.4
2017-08-08T00:09:20.157Z,14.4
2017-08-08T00:09:24.507Z,14.4
2017-08-08T00:09:28.852Z,14.4
2017-08-08T00:09:33.335Z,14.4
2017-08-08T00:09:37.805Z,14.39
2017-08-08T00:09:42.171Z,14.4
2017-08-08T00:09:46.407Z,14.4
2017-08-08T00:09:50.856Z,14.4
2017-08-08T00:09:55.185Z,14.4
2017-08-08T00:09:59.305Z,14.39
2017-08-08T00:10:03.551Z,14.39
2017-08-08T00:10:07.888Z,14.39
2017-08-08T00:10:12.000Z,14.38
2017-08-08T00:10:16.253Z,14.38
2017-08-08T00:10:20.613Z,14.39
2017-08-08T00:10:24.953Z,14.39
2017-08-08T00:10:29.293Z,14.39
2017-08-08T00:10:33.774Z,14.38
2017-08-08T00:10:38.140Z,14.39
2017-08-08T00:10:42.604Z,14.38
2017-08-08T00:10:47.067Z,14.39
2017-08-08T00:10:51.425Z,14.38
2017-08-08T00:10:55.900Z,14.38
2017-08-08T00:11:00.150Z,14.37
2017-08-08T00:11:04.726Z,14.37
2017-08-08T00:11:09.187Z,14.36
2017-08-08T00:11:13.421Z,14.37
2017-08-08T00:11:17.893Z,14.37
2017-08-08T00:11:22.343Z,14.37
2017-08-08T00:11:26.812Z,14.36
2017-08-08T00:11:31.277Z,14.37
2017-08-08T00:11:35.761Z,14.36
2017-08-08T00:11:40.251Z,14.37
2017-08-08T00:11:44.578Z,14.36
2017-08-08T00:11:49.060Z,14.36
2017-08-08T00:11:53.531Z,14.35
2017-08-08T00:11:57.988Z,14.35
2017-08-08T00:12:02.353Z,14.35
2017-08-08T00:12:06.708Z,14.35
2017-08-08T00:12:11.181Z,14.36
2017-08-08T00:12:15.639Z,14.35
2017-08-08T00:12:19.989Z,14.35
2017-08-08T00:12:24.462Z,14.35
2017-08-08T00:12:28.694Z,14.35
2017-08-08T00:12:32.901Z,14.35
2017-08-08T00:12:37.365Z,14.35
2017-08-08T00:12:41.825Z,14.35
2017-08-08T00:12:46.269Z,14.34
2017-08-08T00:12:50.610Z,14.35
2017-08-08T00:12:54.717Z,14.35
2017-08-08T00:12:59.182Z,14.34
2017-08-08T00:13:03.658Z,14.34
2017-08-08T00:13:07.879Z,14.34
2017-08-08T00:13:12.196Z,14.34
2017-08-08T00:13:16.665Z,14.34
2017-08-08T00:13:21.044Z,14.33
2017-08-08T00:13:25.503Z,14.33
2017-08-08T00:13:29.976Z,14.33
2017-08-08T00:13:34.334Z,14.33
2017-08-08T00:13:38.799Z,14.34
2017-08-08T00:13:43.152Z,14.32
2017-08-08T00:13:47.371Z,14.33
2017-08-08T00:13:51.837Z,14.33
2017-08-08T00:13:56.181Z,14.33
2017-08-08T00:14:00.542Z,14.32
2017-08-08T00:14:05.017Z,14.33
2017-08-08T00:14:09.124Z,14.33
2017-08-08T00:14:13.473Z,14.32
2017-08-08T00:14:17.831Z,14.32
2017-08-08T00:14:22.189Z,14.32
2017-08-08T00:14:26.528Z,14.33
2017-08-08T00:14:30.895Z,14.32
2017-08-08T00:14:35.239Z,14.32
2017-08-08T00:14:39.704Z,14.32
2017-08-08T00:14:44.169Z,14.31
2017-08-08T00:14:48.396Z,14.31
2017-08-08T00:14:52.733Z,14.31
2017-08-08T00:14:57.190Z,14.31
2017-08-08T00:15:01.300Z,14.31
2017-08-08T00:15:05.652Z,14.31
2017-08-08T00:15:10.125Z,14.32
2017-08-08T00:15:14.590Z,14.31
2017-08-08T00:15:18.954Z,14.31
2017-08-08T00:15:23.192Z,14.3
2017-08-08T00:15:27.647Z,14.31
2017-08-08T00:15:32.115Z,14.31
2017-08-08T00:15:36.466Z,14.31
2017-08-08T00:15:40.935Z,14.3
2017-08-08T00:15:45.168Z,14.3
2017-08-08T00:15:49.505Z,14.3
2017-08-08T00:15:53.726Z,14.3
2017-08-08T00:15:58.186Z,14.29
2017-08-08T00:16:02.537Z,14.3
2017-08-08T00:16:06.890Z,14.29
2017-08-08T00:16:11.354Z,14.3
2017-08-08T00:16:15.797Z,14.29
2017-08-08T00:16:20.139Z,14.29
2017-08-08T00:16:24.490Z,14.29
2017-08-08T00:16:28.837Z,14.29
2017-08-08T00:16:33.301Z,14.29
2017-08-08T00:16:37.791Z,14.29
2017-08-08T00:16:42.262Z,14.29
2017-08-08T00:16:46.723Z,14.29
2017-08-08T00:16:51.202Z,14.28
2017-08-08T00:16:55.546Z,14.28
2017-08-08T00:16:59.893Z,14.28
2017-08-08T00:17:04.117Z,14.28
2017-08-08T00:17:08.496Z,14.28
2017-08-08T00:17:12.864Z,14.28
2017-08-08T00:17:17.331Z,14.28
2017-08-08T00:17:21.673Z,14.28
2017-08-08T00:17:26.030Z,14.27
2017-08-08T00:17:30.516Z,14.28
2017-08-08T00:17:34.982Z,14.27
2017-08-08T00:17:39.215Z,14.27
2017-08-08T00:17:43.663Z,14.26
2017-08-08T00:17:48.120Z,14.27
2017-08-08T00:17:52.468Z,14.26
2017-08-08T00:17:56.811Z,14.26
2017-08-08T00:18:01.267Z,14.26
2017-08-08T00:18:05.517Z,14.26
2017-08-08T00:18:09.742Z,14.26
2017-08-08T00:18:14.065Z,14.26
2017-08-08T00:18:18.405Z,14.26
2017-08-08T00:18:22.757Z,14.25
2017-08-08T00:18:27.086Z,14.26
2017-08-08T00:18:31.551Z,14.26
2017-08-08T00:18:35.883Z,14.26
2017-08-08T00:18:39.988Z,14.25
2017-08-08T00:18:44.448Z,14.25
2017-08-08T00:18:48.795Z,14.25
2017-08-08T00:18:53.262Z,14.25
2017-08-08T00:18:57.608Z,14.25
2017-08-08T00:19:02.274Z,14.26
2017-08-08T00:19:06.738Z,14.25
2017-08-08T00:19:11.187Z,14.25
2017-08-08T00:19:15.648Z,14.25
2017-08-08T00:19:19.996Z,14.24
2017-08-08T00:19:24.464Z,14.25
2017-08-08T00:19:28.701Z,14.24
2017-08-08T00:19:33.051Z,14.25
2017-08-08T00:19:37.522Z,14.24
2017-08-08T00:19:41.981Z,14.24
2017-08-08T00:19:46.212Z,14.25
2017-08-08T00:19:50.552Z,14.23
2017-08-08T00:19:55.023Z,14.23
2017-08-08T00:19:59.492Z,14.24
2017-08-08T00:20:04.016Z,14.24
2017-08-08T00:20:08.352Z,14.24
2017-08-08T00:20:12.699Z,14.23
2017-08-08T00:20:17.195Z,14.23
2017-08-08T00:20:21.421Z,14.23
2017-08-08T00:20:25.764Z,14.23
2017-08-08T00:20:30.213Z,14.23
2017-08-08T00:20:34.566Z,14.23
2017-08-08T00:20:38.910Z,14.23
2017-08-08T00:20:43.375Z,14.22
2017-08-08T00:20:47.836Z,14.23
2017-08-08T00:20:52.309Z,14.23
2017-08-08T00:20:56.647Z,14.23
2017-08-08T00:21:01.110Z,14.22
2017-08-08T00:21:05.500Z,14.22
2017-08-08T00:21:09.975Z,14.22
2017-08-08T00:21:14.438Z,14.22
2017-08-08T00:21:18.774Z,14.22
2017-08-08T00:21:23.003Z,14.22
2017-08-08T00:21:27.254Z,14.22
2017-08-08T00:21:31.608Z,14.23
2017-08-08T00:21:36.086Z,14.22
2017-08-08T00:21:40.433Z,14.22
2017-08-08T00:21:44.645Z,14.22
2017-08-08T00:21:48.856Z,14.21
2017-08-08T00:21:53.218Z,14.21
2017-08-08T00:21:57.673Z,14.21
2017-08-08T00:22:02.150Z,14.22
2017-08-08T00:22:06.502Z,14.21
2017-08-08T00:22:10.747Z,14.21
2017-08-08T00:22:15.209Z,14.21
2017-08-08T00:22:19.671Z,14.21
2017-08-08T00:22:23.917Z,14.21
2017-08-08T00:22:28.244Z,14.21
2017-08-08T00:22:32.712Z,14.21
2017-08-08T00:22:37.204Z,14.21
2017-08-08T00:22:41.557Z,14.21
2017-08-08T00:22:46.033Z,14.2
2017-08-08T00:22:50.146Z,14.22
2017-08-08T00:22:54.607Z,14.21
2017-08-08T00:22:59.071Z,14.2
2017-08-08T00:23:03.792Z,14.21
2017-08-08T00:23:08.286Z,14.2
2017-08-08T00:23:12.740Z,14.2
2017-08-08T00:23:17.202Z,14.2
2017-08-08T00:23:21.541Z,14.21
2017-08-08T00:23:25.988Z,14.2
2017-08-08T00:23:30.451Z,14.2
2017-08-08T00:23:34.807Z,14.2
2017-08-08T00:23:39.263Z,14.21
2017-08-08T00:23:43.727Z,14.2
2017-08-08T00:23:48.086Z,14.2
2017-08-08T00:23:52.304Z,14.2
2017-08-08T00:23:56.766Z,14.2
2017-08-08T00:24:01.133Z,14.2
2017-08-08T00:24:05.596Z,14.2
2017-08-08T00:24:09.825Z,14.2
2017-08-08T00:24:14.160Z,14.2
2017-08-08T00:24:18.510Z,14.2
2017-08-08T00:24:22.866Z,14.2
2017-08-08T00:24:27.311Z,14.19
2017-08-08T00:24:31.926Z,14.19
2017-08-08T00:24:36.399Z,14.2
2017-08-08T00:24:40.866Z,14.2
2017-08-08T00:24:45.209Z,14.2
2017-08-08T00:24:49.677Z,14.2
2017-08-08T00:24:54.018Z,14.2
2017-08-08T00:24:58.491Z,14.2
2017-08-08T00:25:02.992Z,14.2
2017-08-08T00:25:07.450Z,14.2
2017-08-08T00:25:11.672Z,14.21
2017-08-08T00:25:15.920Z,14.2
2017-08-08T00:25:20.267Z,14.2
2017-08-08T00:25:24.473Z,14.2
2017-08-08T00:25:28.940Z,14.2
2017-08-08T00:25:33.398Z,14.2
2017-08-08T00:25:37.874Z,14.21
2017-08-08T00:25:42.483Z,14.2
2017-08-08T00:25:46.710Z,14.2
2017-08-08T00:25:50.801Z,14.2
2017-08-08T00:25:55.252Z,14.19
2017-08-08T00:25:59.729Z,14.2
2017-08-08T00:26:04.086Z,14.2
2017-08-08T00:26:08.467Z,14.2
2017-08-08T00:26:12.688Z,14.2
2017-08-08T00:26:17.036Z,14.2
2017-08-08T00:26:21.260Z,14.2
2017-08-08T00:26:25.738Z,14.2
2017-08-08T00:26:30.104Z,14.2
2017-08-08T00:26:34.572Z,14.2
2017-08-08T00:26:39.047Z,14.2
2017-08-08T00:26:43.508Z,14.2
2017-08-08T00:26:47.863Z,14.2
2017-08-08T00:26:52.086Z,14.2
2017-08-08T00:26:56.553Z,14.2
2017-08-08T00:27:00.894Z,14.21
2017-08-08T00:27:05.469Z,14.2
2017-08-08T00:27:09.946Z,14.2
2017-08-08T00:27:14.194Z,14.2
2017-08-08T00:27:18.428Z,14.21
2017-08-08T00:27:22.647Z,14.2
2017-08-08T00:27:27.111Z,14.2
2017-08-08T00:27:31.452Z,14.2
2017-08-08T00:27:35.939Z,14.2
2017-08-08T00:27:40.389Z,14.2
2017-08-08T00:27:44.736Z,14.2
2017-08-08T00:27:48.986Z,14.2
2017-08-08T00:27:53.453Z,14.21
2017-08-08T00:27:57.811Z,14.2
2017-08-08T00:28:02.254Z,14.2
2017-08-08T00:28:06.611Z,14.2
2017-08-08T00:28:11.077Z,14.19
2017-08-08T00:28:15.561Z,14.2
2017-08-08T00:28:19.791Z,14.19
2017-08-08T00:28:23.887Z,14.2
2017-08-08T00:28:28.220Z,14.19
2017-08-08T00:28:32.717Z,14.19
2017-08-08T00:28:37.184Z,14.2
2017-08-08T00:28:41.537Z,14.19
2017-08-08T00:28:45.892Z,14.19
2017-08-08T00:28:50.162Z,14.2
2017-08-08T00:28:54.517Z,14.19
2017-08-08T00:28:58.861Z,14.19
2017-08-08T00:29:03.474Z,14.2
2017-08-08T00:29:07.735Z,14.19
2017-08-08T00:29:12.069Z,14.2
2017-08-08T00:29:16.528Z,14.19
2017-08-08T00:29:20.872Z,14.2
2017-08-08T00:29:25.212Z,14.19
2017-08-08T00:29:29.669Z,14.2
2017-08-08T00:29:34.004Z,14.2
2017-08-08T00:29:38.347Z,14.2
2017-08-08T00:29:42.583Z,14.19
2017-08-08T00:29:47.045Z,14.19
2017-08-08T00:29:51.506Z,14.19
2017-08-08T00:29:55.846Z,14.19
2017-08-08T00:30:00.081Z,14.19
2017-08-08T00:30:04.671Z,14.19
2017-08-08T00:30:09.139Z,14.18
2017-08-08T00:30:13.495Z,14.19
2017-08-08T00:30:17.739Z,14.19
2017-08-08T00:30:21.967Z,14.19
2017-08-08T00:30:26.418Z,14.19
2017-08-08T00:30:30.748Z,14.18
2017-08-08T00:30:35.089Z,14.19
2017-08-08T00:30:39.560Z,14.18
2017-08-08T00:30:43.908Z,14.19
2017-08-08T00:30:48.365Z,14.18
2017-08-08T00:30:52.833Z,14.18
2017-08-08T00:30:57.346Z,14.19
2017-08-08T00:31:01.702Z,14.18
2017-08-08T00:31:05.950Z,14.18
2017-08-08T00:31:10.332Z,14.19
2017-08-08T00:31:14.809Z,14.18
2017-08-08T00:31:19.156Z,14.18
2017-08-08T00:31:23.514Z,14.18
2017-08-08T00:31:27.988Z,14.18
2017-08-08T00:31:32.449Z,14.18
2017-08-08T00:31:36.801Z,14.18
2017-08-08T00:31:41.272Z,14.18
2017-08-08T00:31:45.597Z,14.18
2017-08-08T00:31:49.933Z,14.17
2017-08-08T00:31:54.403Z,14.17
2017-08-08T00:31:58.879Z,14.17
2017-08-08T00:32:03.427Z,14.17
2017-08-08T00:32:07.661Z,14.17
2017-08-08T00:32:12.002Z,14.16
2017-08-08T00:32:16.230Z,14.17
2017-08-08T00:32:20.575Z,14.17
2017-08-08T00:32:24.807Z,14.16
2017-08-08T00:32:29.257Z,14.17
2017-08-08T00:32:33.496Z,14.17
2017-08-08T00:32:37.953Z,14.16
2017-08-08T00:32:42.308Z,14.17
2017-08-08T00:32:46.540Z,14.16
2017-08-08T00:32:50.997Z,14.16
2017-08-08T00:32:55.341Z,14.16
2017-08-08T00:32:59.810Z,14.16
2017-08-08T00:33:04.147Z,14.16
2017-08-08T00:33:08.609Z,14.15
2017-08-08T00:33:12.946Z,14.16
2017-08-08T00:33:17.297Z,14.16
2017-08-08T00:33:21.640Z,14.16
2017-08-08T00:33:25.878Z,14.15
2017-08-08T00:33:30.340Z,14.16
2017-08-08T00:33:34.816Z,14.16
2017-08-08T00:33:39.171Z,14.15
2017-08-08T00:33:43.654Z,14.15
2017-08-08T00:33:48.112Z,14.15
2017-08-08T00:33:52.573Z,14.15
2017-08-08T00:33:56.810Z,14.15
2017-08-08T00:34:01.272Z,14.14
2017-08-08T00:34:05.729Z,14.14
2017-08-08T00:34:10.193Z,14.14
2017-08-08T00:34:14.579Z,14.14
2017-08-08T00:34:19.041Z,14.14
2017-08-08T00:34:23.498Z,14.13
2017-08-08T00:34:27.959Z,14.15
2017-08-08T00:34:32.439Z,14.14
2017-08-08T00:34:36.796Z,14.14
2017-08-08T00:34:41.137Z,14.13
2017-08-08T00:34:45.601Z,14.14
2017-08-08T00:34:49.950Z,14.14
2017-08-08T00:34:54.305Z,14.13
2017-08-08T00:34:58.760Z,14.14
2017-08-08T00:35:02.992Z,14.14
2017-08-08T00:35:07.451Z,14.13
2017-08-08T00:35:11.941Z,14.14
2017-08-08T00:35:16.391Z,14.13
2017-08-08T00:35:20.870Z,14.13
2017-08-08T00:35:25.346Z,14.14
2017-08-08T00:35:29.790Z,14.14
2017-08-08T00:35:34.256Z,14.13
2017-08-08T00:35:38.622Z,14.13
2017-08-08T00:35:42.965Z,14.13
2017-08-08T00:35:47.325Z,14.13
2017-08-08T00:35:51.673Z,14.13
2017-08-08T00:35:56.149Z,14.13
2017-08-08T00:36:00.600Z,14.12
2017-08-08T00:36:05.077Z,14.13
2017-08-08T00:36:09.451Z,14.12
2017-08-08T00:36:13.922Z,14.12
2017-08-08T00:36:18.386Z,14.12
2017-08-08T00:36:22.737Z,14.12
2017-08-08T00:36:27.085Z,14.12
2017-08-08T00:36:31.553Z,14.12
2017-08-08T00:36:35.897Z,14.13
2017-08-08T00:36:40.238Z,14.12
2017-08-08T00:36:44.585Z,14.12
2017-08-08T00:36:49.053Z,14.13
2017-08-08T00:36:53.391Z,14.13
2017-08-08T00:36:57.744Z,14.13
2017-08-08T00:37:02.103Z,14.13
2017-08-08T00:37:06.457Z,14.12
2017-08-08T00:37:10.798Z,14.13
2017-08-08T00:37:15.166Z,14.12
2017-08-08T00:37:19.521Z,14.12
2017-08-08T00:37:23.754Z,14.12
2017-08-08T00:37:28.104Z,14.12
2017-08-08T00:37:32.577Z,14.12
2017-08-08T00:37:37.050Z,14.12
2017-08-08T00:37:41.379Z,14.11
2017-08-08T00:37:45.625Z,14.12
2017-08-08T00:37:50.101Z,14.12
2017-08-08T00:37:54.432Z,14.12
2017-08-08T00:37:58.790Z,14.12
2017-08-08T00:38:03.263Z,14.11
2017-08-08T00:38:07.499Z,14.12
2017-08-08T00:38:11.960Z,14.12
2017-08-08T00:38:16.309Z,14.12
2017-08-08T00:38:20.646Z,14.11
2017-08-08T00:38:25.115Z,14.12
2017-08-08T00:38:29.586Z,14.12
2017-08-08T00:38:33.933Z,14.12
2017-08-08T00:38:38.281Z,14.11
2017-08-08T00:38:42.396Z,14.12
2017-08-08T00:38:46.747Z,14.12
2017-08-08T00:38:51.211Z,14.11
2017-08-08T00:38:55.662Z,14.12
2017-08-08T00:39:00.005Z,14.12
2017-08-08T00:39:04.374Z,14.12
2017-08-08T00:39:08.730Z,14.11
2017-08-08T00:39:13.190Z,14.12
2017-08-08T00:39:17.646Z,14.11
2017-08-08T00:39:21.999Z,14.12
2017-08-08T00:39:26.466Z,14.12
2017-08-08T00:39:30.834Z,14.12
2017-08-08T00:39:35.354Z,14.12
2017-08-08T00:39:39.818Z,14.12
2017-08-08T00:39:44.166Z,14.12
2017-08-08T00:39:48.513Z,14.12
2017-08-08T00:39:52.974Z,14.12
2017-08-08T00:39:57.477Z,14.12
2017-08-08T00:40:01.819Z,14.13
2017-08-08T00:40:06.282Z,14.13
2017-08-08T00:40:10.737Z,14.13
2017-08-08T00:40:15.200Z,14.12
2017-08-08T00:40:19.539Z,14.13
2017-08-08T00:40:23.895Z,14.13
2017-08-08T00:40:28.247Z,14.13
2017-08-08T00:40:32.583Z,14.13
2017-08-08T00:40:36.930Z,14.13
2017-08-08T00:40:41.377Z,14.14
2017-08-08T00:40:45.717Z,14.14
2017-08-08T00:40:50.060Z,14.14
2017-08-08T00:40:54.395Z,14.14
2017-08-08T00:40:58.749Z,14.14
2017-08-08T00:41:03.325Z,14.15
2017-08-08T00:41:07.797Z,14.14
2017-08-08T00:41:12.140Z,14.15
2017-08-08T00:41:16.474Z,14.14
2017-08-08T00:41:20.841Z,14.14
2017-08-08T00:41:25.179Z,14.15
2017-08-08T00:41:29.414Z,14.14
2017-08-08T00:41:33.774Z,14.14
2017-08-08T00:41:38.137Z,14.15
2017-08-08T00:41:42.601Z,14.15
2017-08-08T00:41:46.839Z,14.15
2017-08-08T00:41:51.300Z,14.15
2017-08-08T00:41:55.760Z,14.14
2017-08-08T00:41:59.983Z,14.15
2017-08-08T00:42:04.623Z,14.15
2017-08-08T00:42:08.962Z,14.15
2017-08-08T00:42:13.404Z,14.15
2017-08-08T00:42:17.891Z,14.15
2017-08-08T00:42:22.237Z,14.15
2017-08-08T00:42:26.578Z,14.15
2017-08-08T00:42:31.040Z,14.15
2017-08-08T00:42:35.390Z,14.16
2017-08-08T00:42:39.850Z,14.16
2017-08-08T00:42:44.197Z,14.16
2017-08-08T00:42:48.433Z,14.16
2017-08-08T00:42:52.769Z,14.16
2017-08-08T00:42:57.231Z,14.16
2017-08-08T00:43:01.348Z,14.15
2017-08-08T00:43:05.697Z,14.16
2017-08-08T00:43:10.160Z,14.16
2017-08-08T00:43:14.634Z,14.16
2017-08-08T00:43:18.974Z,14.16
2017-08-08T00:43:23.320Z,14.16
2017-08-08T00:43:27.783Z,14.15
2017-08-08T00:43:32.266Z,14.16
2017-08-08T00:43:36.726Z,14.16
2017-08-08T00:43:41.207Z,14.15
2017-08-08T00:43:45.548Z,14.16
2017-08-08T00:43:50.010Z,14.17
2017-08-08T00:43:54.357Z,14.16
2017-08-08T00:43:58.825Z,14.16
2017-08-08T00:44:03.628Z,14.16
2017-08-08T00:44:07.855Z,14.16
2017-08-08T00:44:12.332Z,14.17
2017-08-08T00:44:16.697Z,14.16
2017-08-08T00:44:21.163Z,14.16
2017-08-08T00:44:25.514Z,14.15
2017-08-08T00:44:29.991Z,14.16
2017-08-08T00:44:34.329Z,14.16
2017-08-08T00:44:38.821Z,14.16
2017-08-08T00:44:43.273Z,14.16
2017-08-08T00:44:47.493Z,14.16
2017-08-08T00:44:51.961Z,14.16
2017-08-08T00:44:56.417Z,14.16
2017-08-08T00:45:00.767Z,14.16
2017-08-08T00:45:05.124Z,14.15
2017-08-08T00:45:09.476Z,14.15
2017-08-08T00:45:13.931Z,14.16
2017-08-08T00:45:18.266Z,14.16
2017-08-08T00:45:22.632Z,14.15
2017-08-08T00:45:27.096Z,14.16
2017-08-08T00:45:31.556Z,14.15
2017-08-08T00:45:36.033Z,14.16
2017-08-08T00:45:40.263Z,14.15
2017-08-08T00:45:44.610Z,14.16
2017-08-08T00:45:49.081Z,14.15
2017-08-08T00:45:53.574Z,14.15
2017-08-08T00:45:58.037Z,14.15
2017-08-08T00:46:02.267Z,14.15
2017-08-08T00:46:06.498Z,14.16
2017-08-08T00:46:10.971Z,14.15
2017-08-08T00:46:15.418Z,14.15
2017-08-08T00:46:19.775Z,14.15
2017-08-08T00:46:24.120Z,14.14
2017-08-08T00:46:28.594Z,14.15
2017-08-08T00:46:33.063Z,14.14
2017-08-08T00:46:37.530Z,14.14
2017-08-08T00:46:41.994Z,14.14
2017-08-08T00:46:46.351Z,14.14
2017-08-08T00:46:50.846Z,14.14
2017-08-08T00:46:55.309Z,14.14
2017-08-08T00:46:59.536Z,14.14
2017-08-08T00:47:03.890Z,14.13
2017-08-08T00:47:08.242Z,14.13
2017-08-08T00:47:12.699Z,14.14
2017-08-08T00:47:17.175Z,14.13
2017-08-08T00:47:21.529Z,14.13
2017-08-08T00:47:25.879Z,14.13
2017-08-08T00:47:30.325Z,14.12
2017-08-08T00:47:34.456Z,14.13
2017-08-08T00:47:38.917Z,14.13
2017-08-08T00:47:43.371Z,14.13
2017-08-08T00:47:47.485Z,14.12
2017-08-08T00:47:51.830Z,14.12
2017-08-08T00:47:56.305Z,14.13
2017-08-08T00:48:00.659Z,14.12
2017-08-08T00:48:05.007Z,14.12
2017-08-08T00:48:09.455Z,14.12
2017-08-08T00:48:13.812Z,14.11
2017-08-08T00:48:18.272Z,14.12
2017-08-08T00:48:22.632Z,14.12
2017-08-08T00:48:26.993Z,14.11
2017-08-08T00:48:31.470Z,14.11
2017-08-08T00:48:35.820Z,14.1
2017-08-08T00:48:40.292Z,14.11
2017-08-08T00:48:44.644Z,14.1
2017-08-08T00:48:49.113Z,14.1
2017-08-08T00:48:53.472Z,14.1
2017-08-08T00:48:57.944Z,14.09
2017-08-08T00:49:02.460Z,14.1
2017-08-08T00:49:06.788Z,14.09
2017-08-08T00:49:11.242Z,14.09
2017-08-08T00:49:15.703Z,14.08
2017-08-08T00:49:20.167Z,14.09
2017-08-08T00:49:24.502Z,14.08
2017-08-08T00:49:28.614Z,14.09
2017-08-08T00:49:32.956Z,14.08
2017-08-08T00:49:37.435Z,14.08
2017-08-08T00:49:41.793Z,14.08
2017-08-08T00:49:46.131Z,14.08
2017-08-08T00:49:50.502Z,14.08
2017-08-08T00:49:54.862Z,14.07
2017-08-08T00:49:59.324Z,14.07
2017-08-08T00:50:03.547Z,14.07
2017-08-08T00:50:07.809Z,14.07
2017-08-08T00:50:12.165Z,14.07
2017-08-08T00:50:16.624Z,14.06
2017-08-08T00:50:20.981Z,14.06
2017-08-08T00:50:25.442Z,14.06
2017-08-08T00:50:29.790Z,14.06
2017-08-08T00:50:34.245Z,14.06
2017-08-08T00:50:38.589Z,14.06
2017-08-08T00:50:42.942Z,14.06
2017-08-08T00:50:47.168Z,14.05
2017-08-08T00:50:51.656Z,14.05
2017-08-08T00:50:55.875Z,14.06
2017-08-08T00:51:00.345Z,14.05
2017-08-08T00:51:04.850Z,14.04
2017-08-08T00:51:09.317Z,14.04
2017-08-08T00:51:13.546Z,14.04
2017-08-08T00:51:18.021Z,14.04
2017-08-08T00:51:22.243Z,14.04
2017-08-08T00:51:26.581Z,14.04
2017-08-08T00:51:30.928Z,14.04
2017-08-08T00:51:35.391Z,14.04
2017-08-08T00:51:39.749Z,14.04
2017-08-08T00:51:44.081Z,14.03
2017-08-08T00:51:48.548Z,14.03
2017-08-08T00:51:52.887Z,14.03
2017-08-08T00:51:57.220Z,14.03
2017-08-08T00:52:01.583Z,14.03
2017-08-08T00:52:06.081Z,14.03
2017-08-08T00:52:10.421Z,14.03
2017-08-08T00:52:14.876Z,14.03
2017-08-08T00:52:19.335Z,14.02
2017-08-08T00:52:23.686Z,14.02
2017-08-08T00:52:28.048Z,14.02
2017-08-08T00:52:32.518Z,14.03
2017-08-08T00:52:36.749Z,14.02
2017-08-08T00:52:41.201Z,14.02
2017-08-08T00:52:45.314Z,14.02
2017-08-08T00:52:49.444Z,14.02
2017-08-08T00:52:53.797Z,14.02
2017-08-08T00:52:58.041Z,14.01
2017-08-08T00:53:02.509Z,14.02
2017-08-08T00:53:06.984Z,14.02
2017-08-08T00:53:11.336Z,14.01
2017-08-08T00:53:15.843Z,14.01
2017-08-08T00:53:20.302Z,14.01
2017-08-08T00:53:24.526Z,14.02
2017-08-08T00:53:28.876Z,14.01
2017-08-08T00:53:33.212Z,14.01
2017-08-08T00:53:37.550Z,14.01
2017-08-08T00:53:42.060Z,14.02
2017-08-08T00:53:46.286Z,14.01
2017-08-08T00:53:50.508Z,14
2017-08-08T00:53:54.855Z,14.01
2017-08-08T00:53:59.312Z,14.01
2017-08-08T00:54:03.647Z,14.01
2017-08-08T00:54:07.876Z,14
2017-08-08T00:54:12.365Z,14
2017-08-08T00:54:16.721Z,14
2017-08-08T00:54:21.066Z,14
2017-08-08T00:54:25.518Z,14
2017-08-08T00:54:29.856Z,14
2017-08-08T00:54:34.333Z,14
2017-08-08T00:54:38.797Z,14
2017-08-08T00:54:43.267Z,14
2017-08-08T00:54:47.603Z,14
2017-08-08T00:54:52.098Z,14
2017-08-08T00:54:56.465Z,14
2017-08-08T00:55:00.915Z,13.99
2017-08-08T00:55:05.529Z,14
2017-08-08T00:55:10.012Z,14
2017-08-08T00:55:14.358Z,13.99
2017-08-08T00:55:18.580Z,14
2017-08-08T00:55:23.072Z,14
2017-08-08T00:55:27.430Z,14
2017-08-08T00:55:31.650Z,14
2017-08-08T00:55:36.014Z,14.01
2017-08-08T00:55:40.468Z,14
2017-08-08T00:55:44.932Z,14
2017-08-08T00:55:49.029Z,14
2017-08-08T00:55:53.501Z,14
2017-08-08T00:55:57.751Z,14
2017-08-08T00:56:02.573Z,13.99
2017-08-08T00:56:06.932Z,13.99
2017-08-08T00:56:11.276Z,13.99
2017-08-08T00:56:15.739Z,14
2017-08-08T00:56:20.206Z,13.99
2017-08-08T00:56:24.443Z,13.99
2017-08-08T00:56:28.785Z,13.99
2017-08-08T00:56:33.138Z,13.99
2017-08-08T00:56:37.600Z,13.99
2017-08-08T00:56:42.062Z,13.99
2017-08-08T00:56:46.431Z,14
2017-08-08T00:56:50.568Z,13.99
2017-08-08T00:56:54.900Z,14